sensor_id;sensor_type;location;lat;lon;timestamp;temperature;humidity
420;DHT22;42600;54.408;13.016;2024-03-22T00:02:14;7.20;92.70
420;DHT22;42600;54.408;13.016;2024-03-22T00:04:40;7.20;92.70
420;DHT22;42600;54.408;13.016;2024-03-22T00:07:07;7.20;92.70
420;DHT22;42600;54.408;13.016;2024-03-22T00:09:32;7.20;92.70
420;DHT22;42600;54.408;13.016;2024-03-22T00:12:00;7.20;92.70
420;DHT22;42600;54.408;13.016;2024-03-22T00:14:25;7.20;92.70
420;DHT22;42600;54.408;13.016;2024-03-22T00:16:53;7.20;92.70
420;DHT22;42600;54.408;13.016;2024-03-22T00:19:19;7.20;92.70
420;DHT22;42600;54.408;13.016;2024-03-22T00:21:46;7.20;92.70
420;DHT22;42600;54.408;13.016;2024-03-22T00:24:11;7.20;92.70
420;DHT22;42600;54.408;13.016;2024-03-22T00:26:38;7.20;92.70
420;DHT22;42600;54.408;13.016;2024-03-22T00:29:04;7.20;92.70
420;DHT22;42600;54.408;13.016;2024-03-22T00:31:31;7.20;92.70
420;DHT22;42600;54.408;13.016;2024-03-22T00:33:58;7.20;92.70
420;DHT22;42600;54.408;13.016;2024-03-22T00:36:24;7.20;92.70
420;DHT22;42600;54.408;13.016;2024-03-22T00:38:50;7.20;92.70
420;DHT22;42600;54.408;13.016;2024-03-22T00:41:17;7.20;92.70
420;DHT22;42600;54.408;13.016;2024-03-22T00:43:42;7.20;92.70
420;DHT22;42600;54.408;13.016;2024-03-22T00:46:09;7.20;92.70
420;DHT22;42600;54.408;13.016;2024-03-22T00:48:35;7.20;92.70
420;DHT22;42600;54.408;13.016;2024-03-22T00:51:03;7.20;92.70
420;DHT22;42600;54.408;13.016;2024-03-22T00:53:29;7.20;92.70
420;DHT22;42600;54.408;13.016;2024-03-22T00:55:56;7.20;92.70
420;DHT22;42600;54.408;13.016;2024-03-22T00:58:24;7.20;92.70
420;DHT22;42600;54.408;13.016;2024-03-22T01:00:51;7.20;92.70
420;DHT22;42600;54.408;13.016;2024-03-22T01:03:17;7.20;92.70
420;DHT22;42600;54.408;13.016;2024-03-22T01:05:43;7.20;92.70
420;DHT22;42600;54.408;13.016;2024-03-22T01:08:11;7.20;92.70
420;DHT22;42600;54.408;13.016;2024-03-22T01:10:38;7.20;92.70
420;DHT22;42600;54.408;13.016;2024-03-22T01:13:03;7.20;92.70
420;DHT22;42600;54.408;13.016;2024-03-22T01:15:30;7.20;92.70
420;DHT22;42600;54.408;13.016;2024-03-22T01:17:56;7.20;92.70
420;DHT22;42600;54.408;13.016;2024-03-22T01:20:22;7.20;92.70
420;DHT22;42600;54.408;13.016;2024-03-22T01:22:48;7.20;92.70
420;DHT22;42600;54.408;13.016;2024-03-22T01:25:16;7.20;92.70
420;DHT22;42600;54.408;13.016;2024-03-22T01:27:42;7.20;92.70
420;DHT22;42600;54.408;13.016;2024-03-22T01:30:09;7.20;92.70
420;DHT22;42600;54.408;13.016;2024-03-22T01:32:35;7.30;92.70
420;DHT22;42600;54.408;13.016;2024-03-22T01:35:02;7.20;92.70
420;DHT22;42600;54.408;13.016;2024-03-22T01:37:27;7.20;92.70
420;DHT22;42600;54.408;13.016;2024-03-22T01:39:54;7.20;92.70
420;DHT22;42600;54.408;13.016;2024-03-22T01:42:21;7.20;92.70
420;DHT22;42600;54.408;13.016;2024-03-22T01:44:49;7.20;92.70
420;DHT22;42600;54.408;13.016;2024-03-22T01:47:15;7.20;92.70
420;DHT22;42600;54.408;13.016;2024-03-22T01:49:42;7.20;92.70
420;DHT22;42600;54.408;13.016;2024-03-22T01:52:08;7.20;92.70
420;DHT22;42600;54.408;13.016;2024-03-22T01:54:34;7.20;92.70
420;DHT22;42600;54.408;13.016;2024-03-22T01:57:00;7.20;92.70
420;DHT22;42600;54.408;13.016;2024-03-22T01:59:28;7.20;92.70
420;DHT22;42600;54.408;13.016;2024-03-22T02:01:55;7.20;92.70
420;DHT22;42600;54.408;13.016;2024-03-22T02:04:22;7.20;92.70
420;DHT22;42600;54.408;13.016;2024-03-22T02:06:47;7.20;92.70
420;DHT22;42600;54.408;13.016;2024-03-22T02:09:14;7.20;92.70
420;DHT22;42600;54.408;13.016;2024-03-22T02:11:41;7.20;92.70
420;DHT22;42600;54.408;13.016;2024-03-22T02:14:08;7.20;92.70
420;DHT22;42600;54.408;13.016;2024-03-22T02:16:35;7.20;92.70
420;DHT22;42600;54.408;13.016;2024-03-22T02:19:01;7.20;92.70
420;DHT22;42600;54.408;13.016;2024-03-22T02:21:27;7.20;92.70
420;DHT22;42600;54.408;13.016;2024-03-22T02:23:55;7.20;92.70
420;DHT22;42600;54.408;13.016;2024-03-22T02:26:21;7.20;92.70
420;DHT22;42600;54.408;13.016;2024-03-22T02:28:47;7.20;92.70
420;DHT22;42600;54.408;13.016;2024-03-22T02:31:13;7.20;92.70
420;DHT22;42600;54.408;13.016;2024-03-22T02:33:40;7.20;92.70
420;DHT22;42600;54.408;13.016;2024-03-22T02:36:06;7.20;92.70
420;DHT22;42600;54.408;13.016;2024-03-22T02:38:32;7.10;92.70
420;DHT22;42600;54.408;13.016;2024-03-22T02:40:59;7.10;92.70
420;DHT22;42600;54.408;13.016;2024-03-22T02:43:26;7.20;92.70
420;DHT22;42600;54.408;13.016;2024-03-22T02:45:51;7.20;92.70
420;DHT22;42600;54.408;13.016;2024-03-22T02:48:18;7.20;92.70
420;DHT22;42600;54.408;13.016;2024-03-22T02:50:44;7.20;92.70
420;DHT22;42600;54.408;13.016;2024-03-22T02:53:10;7.20;92.70
420;DHT22;42600;54.408;13.016;2024-03-22T02:55:37;7.20;92.70
420;DHT22;42600;54.408;13.016;2024-03-22T02:58:05;7.20;92.70
420;DHT22;42600;54.408;13.016;2024-03-22T03:00:31;7.20;92.70
420;DHT22;42600;54.408;13.016;2024-03-22T03:02:58;7.20;92.70
420;DHT22;42600;54.408;13.016;2024-03-22T03:05:24;7.20;92.70
420;DHT22;42600;54.408;13.016;2024-03-22T03:07:51;7.20;92.70
420;DHT22;42600;54.408;13.016;2024-03-22T03:10:17;7.20;92.70
420;DHT22;42600;54.408;13.016;2024-03-22T03:12:44;7.20;92.70
420;DHT22;42600;54.408;13.016;2024-03-22T03:15:11;7.20;92.70
420;DHT22;42600;54.408;13.016;2024-03-22T03:17:37;7.20;92.70
420;DHT22;42600;54.408;13.016;2024-03-22T03:20:04;7.20;92.70
420;DHT22;42600;54.408;13.016;2024-03-22T03:22:33;7.20;92.70
420;DHT22;42600;54.408;13.016;2024-03-22T03:24:59;7.20;92.70
420;DHT22;42600;54.408;13.016;2024-03-22T03:27:26;7.20;92.70
420;DHT22;42600;54.408;13.016;2024-03-22T03:29:51;7.30;92.70
420;DHT22;42600;54.408;13.016;2024-03-22T03:32:19;7.20;92.70
420;DHT22;42600;54.408;13.016;2024-03-22T03:34:45;7.20;92.70
420;DHT22;42600;54.408;13.016;2024-03-22T03:37:11;7.20;92.70
420;DHT22;42600;54.408;13.016;2024-03-22T03:39:37;7.30;92.70
420;DHT22;42600;54.408;13.016;2024-03-22T03:42:04;7.20;92.70
420;DHT22;42600;54.408;13.016;2024-03-22T03:44:30;7.30;92.70
420;DHT22;42600;54.408;13.016;2024-03-22T03:46:56;7.30;92.70
420;DHT22;42600;54.408;13.016;2024-03-22T03:49:23;7.30;92.70
420;DHT22;42600;54.408;13.016;2024-03-22T03:51:50;7.30;92.70
420;DHT22;42600;54.408;13.016;2024-03-22T03:54:15;7.30;92.70
420;DHT22;42600;54.408;13.016;2024-03-22T03:56:42;7.30;92.70
420;DHT22;42600;54.408;13.016;2024-03-22T03:59:07;7.30;92.70
420;DHT22;42600;54.408;13.016;2024-03-22T04:01:34;7.30;92.70
420;DHT22;42600;54.408;13.016;2024-03-22T04:04:00;7.30;92.70
420;DHT22;42600;54.408;13.016;2024-03-22T04:06:28;7.30;92.70
420;DHT22;42600;54.408;13.016;2024-03-22T04:08:54;7.30;92.70
420;DHT22;42600;54.408;13.016;2024-03-22T04:11:20;7.30;92.70
420;DHT22;42600;54.408;13.016;2024-03-22T04:13:46;7.30;92.70
420;DHT22;42600;54.408;13.016;2024-03-22T04:16:13;7.30;92.70
420;DHT22;42600;54.408;13.016;2024-03-22T04:18:39;7.30;92.70
420;DHT22;42600;54.408;13.016;2024-03-22T04:21:06;7.30;92.70
420;DHT22;42600;54.408;13.016;2024-03-22T04:23:33;7.30;92.70
420;DHT22;42600;54.408;13.016;2024-03-22T04:26:00;7.30;92.70
420;DHT22;42600;54.408;13.016;2024-03-22T04:28:27;7.40;92.70
420;DHT22;42600;54.408;13.016;2024-03-22T04:30:55;7.40;92.70
420;DHT22;42600;54.408;13.016;2024-03-22T04:33:21;7.40;92.70
420;DHT22;42600;54.408;13.016;2024-03-22T04:35:48;7.40;92.70
420;DHT22;42600;54.408;13.016;2024-03-22T04:38:14;7.40;92.70
420;DHT22;42600;54.408;13.016;2024-03-22T04:40:42;7.40;92.70
420;DHT22;42600;54.408;13.016;2024-03-22T04:43:09;7.40;92.70
420;DHT22;42600;54.408;13.016;2024-03-22T04:45:35;7.40;92.70
420;DHT22;42600;54.408;13.016;2024-03-22T04:48:01;7.40;92.70
420;DHT22;42600;54.408;13.016;2024-03-22T04:50:28;7.40;92.70
420;DHT22;42600;54.408;13.016;2024-03-22T04:52:54;7.40;92.70
420;DHT22;42600;54.408;13.016;2024-03-22T04:55:20;7.40;92.70
420;DHT22;42600;54.408;13.016;2024-03-22T04:57:48;7.40;92.70
420;DHT22;42600;54.408;13.016;2024-03-22T05:00:15;7.40;92.70
420;DHT22;42600;54.408;13.016;2024-03-22T05:02:41;7.50;92.70
420;DHT22;42600;54.408;13.016;2024-03-22T05:05:08;7.50;92.70
420;DHT22;42600;54.408;13.016;2024-03-22T05:07:33;7.50;92.70
420;DHT22;42600;54.408;13.016;2024-03-22T05:10:00;7.50;92.70
420;DHT22;42600;54.408;13.016;2024-03-22T05:12:26;7.50;92.70
420;DHT22;42600;54.408;13.016;2024-03-22T05:14:54;7.50;92.70
420;DHT22;42600;54.408;13.016;2024-03-22T05:17:19;7.50;92.70
420;DHT22;42600;54.408;13.016;2024-03-22T05:19:46;7.50;92.70
420;DHT22;42600;54.408;13.016;2024-03-22T05:22:12;7.50;92.70
420;DHT22;42600;54.408;13.016;2024-03-22T05:24:39;7.50;92.70
420;DHT22;42600;54.408;13.016;2024-03-22T05:27:04;7.50;92.70
420;DHT22;42600;54.408;13.016;2024-03-22T05:29:31;7.50;92.70
420;DHT22;42600;54.408;13.016;2024-03-22T05:31:58;7.50;92.70
420;DHT22;42600;54.408;13.016;2024-03-22T05:34:25;7.50;92.70
420;DHT22;42600;54.408;13.016;2024-03-22T05:36:51;7.60;92.70
420;DHT22;42600;54.408;13.016;2024-03-22T05:39:18;7.60;92.70
420;DHT22;42600;54.408;13.016;2024-03-22T05:41:43;7.60;92.70
420;DHT22;42600;54.408;13.016;2024-03-22T05:44:11;7.60;92.70
420;DHT22;42600;54.408;13.016;2024-03-22T05:46:37;7.60;92.70
420;DHT22;42600;54.408;13.016;2024-03-22T05:49:05;7.60;92.70
420;DHT22;42600;54.408;13.016;2024-03-22T05:51:30;7.60;92.70
420;DHT22;42600;54.408;13.016;2024-03-22T05:53:57;7.60;92.70
420;DHT22;42600;54.408;13.016;2024-03-22T05:56:23;7.60;92.70
420;DHT22;42600;54.408;13.016;2024-03-22T05:58:49;7.70;92.70
420;DHT22;42600;54.408;13.016;2024-03-22T06:01:15;7.70;92.70
420;DHT22;42600;54.408;13.016;2024-03-22T06:03:42;7.70;92.70
420;DHT22;42600;54.408;13.016;2024-03-22T06:06:09;7.70;92.70
420;DHT22;42600;54.408;13.016;2024-03-22T06:08:35;7.70;92.70
420;DHT22;42600;54.408;13.016;2024-03-22T06:11:06;7.70;92.70
420;DHT22;42600;54.408;13.016;2024-03-22T06:13:33;7.70;92.70
420;DHT22;42600;54.408;13.016;2024-03-22T06:16:00;7.70;92.70
420;DHT22;42600;54.408;13.016;2024-03-22T06:18:27;7.70;92.70
420;DHT22;42600;54.408;13.016;2024-03-22T06:20:52;7.70;92.70
420;DHT22;42600;54.408;13.016;2024-03-22T06:23:22;7.70;92.70
420;DHT22;42600;54.408;13.016;2024-03-22T06:25:51;7.70;92.70
420;DHT22;42600;54.408;13.016;2024-03-22T06:28:18;7.70;92.70
420;DHT22;42600;54.408;13.016;2024-03-22T06:30:43;7.80;92.70
420;DHT22;42600;54.408;13.016;2024-03-22T06:33:10;7.70;92.70
420;DHT22;42600;54.408;13.016;2024-03-22T06:35:36;7.80;92.70
420;DHT22;42600;54.408;13.016;2024-03-22T06:38:03;7.80;92.70
420;DHT22;42600;54.408;13.016;2024-03-22T06:40:31;7.80;92.70
420;DHT22;42600;54.408;13.016;2024-03-22T06:42:57;7.80;92.70
420;DHT22;42600;54.408;13.016;2024-03-22T06:45:24;7.80;92.70
420;DHT22;42600;54.408;13.016;2024-03-22T06:47:50;7.80;92.70
420;DHT22;42600;54.408;13.016;2024-03-22T06:50:16;7.90;92.70
420;DHT22;42600;54.408;13.016;2024-03-22T06:52:43;7.90;92.70
420;DHT22;42600;54.408;13.016;2024-03-22T06:55:09;7.90;92.70
420;DHT22;42600;54.408;13.016;2024-03-22T06:57:37;7.90;92.70
420;DHT22;42600;54.408;13.016;2024-03-22T07:00:03;7.90;92.70
420;DHT22;42600;54.408;13.016;2024-03-22T07:02:30;8.00;92.70
420;DHT22;42600;54.408;13.016;2024-03-22T07:04:55;8.00;92.70
420;DHT22;42600;54.408;13.016;2024-03-22T07:07:22;8.00;92.70
420;DHT22;42600;54.408;13.016;2024-03-22T07:09:48;8.00;92.70
420;DHT22;42600;54.408;13.016;2024-03-22T07:12:14;8.00;92.70
420;DHT22;42600;54.408;13.016;2024-03-22T07:14:41;8.00;92.70
420;DHT22;42600;54.408;13.016;2024-03-22T07:17:08;8.00;92.70
420;DHT22;42600;54.408;13.016;2024-03-22T07:19:34;8.10;92.70
420;DHT22;42600;54.408;13.016;2024-03-22T07:22:01;8.10;92.70
420;DHT22;42600;54.408;13.016;2024-03-22T07:24:26;8.10;92.70
420;DHT22;42600;54.408;13.016;2024-03-22T07:26:53;8.10;92.70
420;DHT22;42600;54.408;13.016;2024-03-22T07:29:18;8.20;92.70
420;DHT22;42600;54.408;13.016;2024-03-22T07:31:46;8.20;92.70
420;DHT22;42600;54.408;13.016;2024-03-22T07:34:13;8.20;92.70
420;DHT22;42600;54.408;13.016;2024-03-22T07:36:39;8.20;92.70
420;DHT22;42600;54.408;13.016;2024-03-22T07:39:06;8.20;92.70
420;DHT22;42600;54.408;13.016;2024-03-22T07:41:32;8.30;92.70
420;DHT22;42600;54.408;13.016;2024-03-22T07:43:59;8.30;92.70
420;DHT22;42600;54.408;13.016;2024-03-22T07:46:25;8.30;92.70
420;DHT22;42600;54.408;13.016;2024-03-22T07:48:53;8.30;92.70
420;DHT22;42600;54.408;13.016;2024-03-22T07:51:19;8.40;92.70
420;DHT22;42600;54.408;13.016;2024-03-22T07:53:46;8.40;92.70
420;DHT22;42600;54.408;13.016;2024-03-22T07:56:12;8.40;92.70
420;DHT22;42600;54.408;13.016;2024-03-22T07:58:39;8.40;92.70
420;DHT22;42600;54.408;13.016;2024-03-22T08:01:04;8.50;92.70
420;DHT22;42600;54.408;13.016;2024-03-22T08:03:31;8.50;92.70
420;DHT22;42600;54.408;13.016;2024-03-22T08:05:58;8.50;92.70
420;DHT22;42600;54.408;13.016;2024-03-22T08:08:25;8.60;92.70
420;DHT22;42600;54.408;13.016;2024-03-22T08:10:50;8.60;92.70
420;DHT22;42600;54.408;13.016;2024-03-22T08:13:17;8.60;92.70
420;DHT22;42600;54.408;13.016;2024-03-22T08:15:43;8.70;92.70
420;DHT22;42600;54.408;13.016;2024-03-22T08:18:11;8.70;92.70
420;DHT22;42600;54.408;13.016;2024-03-22T08:20:36;8.70;92.70
420;DHT22;42600;54.408;13.016;2024-03-22T08:23:05;8.80;92.70
420;DHT22;42600;54.408;13.016;2024-03-22T08:25:31;8.80;92.70
420;DHT22;42600;54.408;13.016;2024-03-22T08:27:59;8.80;92.70
420;DHT22;42600;54.408;13.016;2024-03-22T08:30:24;8.90;92.70
420;DHT22;42600;54.408;13.016;2024-03-22T08:32:51;8.90;92.70
420;DHT22;42600;54.408;13.016;2024-03-22T08:35:17;9.00;92.70
420;DHT22;42600;54.408;13.016;2024-03-22T08:37:44;9.00;92.70
420;DHT22;42600;54.408;13.016;2024-03-22T08:40:12;9.00;92.70
420;DHT22;42600;54.408;13.016;2024-03-22T08:42:39;9.10;92.70
420;DHT22;42600;54.408;13.016;2024-03-22T08:45:06;9.10;92.70
420;DHT22;42600;54.408;13.016;2024-03-22T08:47:32;9.20;92.70
420;DHT22;42600;54.408;13.016;2024-03-22T08:49:59;9.20;92.70
420;DHT22;42600;54.408;13.016;2024-03-22T08:52:25;9.20;92.70
420;DHT22;42600;54.408;13.016;2024-03-22T08:54:51;9.30;92.70
420;DHT22;42600;54.408;13.016;2024-03-22T08:57:19;9.30;92.70
420;DHT22;42600;54.408;13.016;2024-03-22T08:59:45;9.30;92.70
420;DHT22;42600;54.408;13.016;2024-03-22T09:02:12;9.40;92.70
420;DHT22;42600;54.408;13.016;2024-03-22T09:04:37;9.40;92.70
420;DHT22;42600;54.408;13.016;2024-03-22T09:07:04;9.50;92.70
420;DHT22;42600;54.408;13.016;2024-03-22T09:09:30;9.50;92.70
420;DHT22;42600;54.408;13.016;2024-03-22T09:11:56;9.50;92.70
420;DHT22;42600;54.408;13.016;2024-03-22T09:14:24;9.50;92.70
420;DHT22;42600;54.408;13.016;2024-03-22T09:16:51;9.50;92.70
420;DHT22;42600;54.408;13.016;2024-03-22T09:19:16;9.60;92.70
420;DHT22;42600;54.408;13.016;2024-03-22T09:21:43;9.60;92.70
420;DHT22;42600;54.408;13.016;2024-03-22T09:24:09;9.60;92.70
420;DHT22;42600;54.408;13.016;2024-03-22T09:26:35;9.70;92.70
420;DHT22;42600;54.408;13.016;2024-03-22T09:29:01;9.70;92.70
420;DHT22;42600;54.408;13.016;2024-03-22T09:31:30;9.70;92.70
420;DHT22;42600;54.408;13.016;2024-03-22T09:33:56;9.80;92.70
420;DHT22;42600;54.408;13.016;2024-03-22T09:36:22;9.80;92.70
420;DHT22;42600;54.408;13.016;2024-03-22T09:38:50;9.80;92.70
420;DHT22;42600;54.408;13.016;2024-03-22T09:41:22;9.80;92.70
420;DHT22;42600;54.408;13.016;2024-03-22T09:43:49;9.80;92.70
420;DHT22;42600;54.408;13.016;2024-03-22T09:46:18;9.90;92.70
420;DHT22;42600;54.408;13.016;2024-03-22T09:48:47;9.90;92.70
420;DHT22;42600;54.408;13.016;2024-03-22T09:51:15;9.90;92.70
420;DHT22;42600;54.408;13.016;2024-03-22T09:53:44;9.90;92.70
420;DHT22;42600;54.408;13.016;2024-03-22T09:56:14;9.90;92.70
420;DHT22;42600;54.408;13.016;2024-03-22T09:58:40;9.90;92.70
420;DHT22;42600;54.408;13.016;2024-03-22T10:01:07;10.00;92.70
420;DHT22;42600;54.408;13.016;2024-03-22T10:03:33;10.00;92.70
420;DHT22;42600;54.408;13.016;2024-03-22T10:06:03;10.00;92.70
420;DHT22;42600;54.408;13.016;2024-03-22T10:08:30;10.00;92.70
420;DHT22;42600;54.408;13.016;2024-03-22T10:10:57;10.00;92.70
420;DHT22;42600;54.408;13.016;2024-03-22T10:13:23;10.10;92.70
420;DHT22;42600;54.408;13.016;2024-03-22T10:15:50;10.10;92.70
420;DHT22;42600;54.408;13.016;2024-03-22T10:18:16;10.10;92.70
420;DHT22;42600;54.408;13.016;2024-03-22T10:20:43;10.10;92.70
420;DHT22;42600;54.408;13.016;2024-03-22T10:23:10;10.10;92.70
420;DHT22;42600;54.408;13.016;2024-03-22T10:25:36;10.10;92.70
420;DHT22;42600;54.408;13.016;2024-03-22T10:28:03;10.10;92.70
420;DHT22;42600;54.408;13.016;2024-03-22T10:30:29;10.20;92.70
420;DHT22;42600;54.408;13.016;2024-03-22T10:32:56;10.20;92.70
420;DHT22;42600;54.408;13.016;2024-03-22T10:35:23;10.20;92.70
420;DHT22;42600;54.408;13.016;2024-03-22T10:37:50;10.20;92.70
420;DHT22;42600;54.408;13.016;2024-03-22T10:40:19;10.30;92.70
420;DHT22;42600;54.408;13.016;2024-03-22T10:42:45;10.30;92.70
420;DHT22;42600;54.408;13.016;2024-03-22T10:45:12;10.30;92.70
420;DHT22;42600;54.408;13.016;2024-03-22T10:47:38;10.30;92.70
420;DHT22;42600;54.408;13.016;2024-03-22T10:50:06;10.40;92.70
420;DHT22;42600;54.408;13.016;2024-03-22T10:52:36;10.30;92.70
420;DHT22;42600;54.408;13.016;2024-03-22T10:55:07;10.40;92.70
420;DHT22;42600;54.408;13.016;2024-03-22T10:57:36;10.40;92.70
420;DHT22;42600;54.408;13.016;2024-03-22T11:00:04;10.40;92.70
420;DHT22;42600;54.408;13.016;2024-03-22T11:02:35;10.40;92.70
420;DHT22;42600;54.408;13.016;2024-03-22T11:05:02;10.50;92.70
420;DHT22;42600;54.408;13.016;2024-03-22T11:07:29;10.50;92.70
420;DHT22;42600;54.408;13.016;2024-03-22T11:09:56;10.50;92.70
420;DHT22;42600;54.408;13.016;2024-03-22T11:12:24;10.50;92.70
420;DHT22;42600;54.408;13.016;2024-03-22T11:14:55;10.50;92.70
420;DHT22;42600;54.408;13.016;2024-03-22T11:17:21;10.50;92.70
420;DHT22;42600;54.408;13.016;2024-03-22T11:19:50;10.50;92.70
420;DHT22;42600;54.408;13.016;2024-03-22T11:22:16;10.50;92.70
420;DHT22;42600;54.408;13.016;2024-03-22T11:24:42;10.50;92.70
420;DHT22;42600;54.408;13.016;2024-03-22T11:27:09;10.50;92.70
420;DHT22;42600;54.408;13.016;2024-03-22T11:29:37;10.50;92.70
420;DHT22;42600;54.408;13.016;2024-03-22T11:32:07;10.50;92.70
420;DHT22;42600;54.408;13.016;2024-03-22T11:34:35;10.50;92.70
420;DHT22;42600;54.408;13.016;2024-03-22T11:37:00;10.60;92.70
420;DHT22;42600;54.408;13.016;2024-03-22T11:39:27;10.60;92.70
420;DHT22;42600;54.408;13.016;2024-03-22T11:41:53;10.60;92.70
420;DHT22;42600;54.408;13.016;2024-03-22T11:44:21;10.60;92.70
420;DHT22;42600;54.408;13.016;2024-03-22T11:46:47;10.70;92.70
420;DHT22;42600;54.408;13.016;2024-03-22T11:49:15;10.70;92.70
420;DHT22;42600;54.408;13.016;2024-03-22T11:51:42;10.70;92.70
420;DHT22;42600;54.408;13.016;2024-03-22T11:54:09;10.70;92.70
420;DHT22;42600;54.408;13.016;2024-03-22T11:56:35;10.70;92.70
420;DHT22;42600;54.408;13.016;2024-03-22T11:59:01;10.70;92.70
420;DHT22;42600;54.408;13.016;2024-03-22T12:01:29;10.70;92.70
420;DHT22;42600;54.408;13.016;2024-03-22T12:03:56;10.70;92.70
420;DHT22;42600;54.408;13.016;2024-03-22T12:06:23;10.70;92.70
420;DHT22;42600;54.408;13.016;2024-03-22T12:08:50;10.70;92.70
420;DHT22;42600;54.408;13.016;2024-03-22T12:11:16;10.70;92.70
420;DHT22;42600;54.408;13.016;2024-03-22T12:13:43;10.70;92.70
420;DHT22;42600;54.408;13.016;2024-03-22T12:16:08;10.70;92.70
420;DHT22;42600;54.408;13.016;2024-03-22T12:18:35;10.70;92.70
420;DHT22;42600;54.408;13.016;2024-03-22T12:21:01;10.70;92.70
420;DHT22;42600;54.408;13.016;2024-03-22T12:23:29;10.70;92.70
420;DHT22;42600;54.408;13.016;2024-03-22T12:25:54;10.80;92.70
420;DHT22;42600;54.408;13.016;2024-03-22T12:28:22;10.80;92.70
420;DHT22;42600;54.408;13.016;2024-03-22T12:30:48;10.80;92.70
420;DHT22;42600;54.408;13.016;2024-03-22T12:33:14;10.80;92.70
420;DHT22;42600;54.408;13.016;2024-03-22T12:35:41;10.80;92.70
420;DHT22;42600;54.408;13.016;2024-03-22T12:38:08;10.80;92.70
420;DHT22;42600;54.408;13.016;2024-03-22T12:40:37;10.80;92.70
420;DHT22;42600;54.408;13.016;2024-03-22T12:43:04;10.80;92.70
420;DHT22;42600;54.408;13.016;2024-03-22T12:45:30;10.80;92.70
420;DHT22;42600;54.408;13.016;2024-03-22T12:47:57;10.80;92.70
420;DHT22;42600;54.408;13.016;2024-03-22T12:50:24;10.80;92.70
420;DHT22;42600;54.408;13.016;2024-03-22T12:52:50;10.80;92.70
420;DHT22;42600;54.408;13.016;2024-03-22T12:55:16;10.80;92.70
420;DHT22;42600;54.408;13.016;2024-03-22T12:57:45;10.80;92.70
420;DHT22;42600;54.408;13.016;2024-03-22T13:00:11;10.80;92.70
420;DHT22;42600;54.408;13.016;2024-03-22T13:02:40;10.80;92.70
420;DHT22;42600;54.408;13.016;2024-03-22T13:05:06;10.80;92.70
420;DHT22;42600;54.408;13.016;2024-03-22T13:07:33;10.80;92.70
420;DHT22;42600;54.408;13.016;2024-03-22T13:09:59;10.80;92.70
420;DHT22;42600;54.408;13.016;2024-03-22T13:12:27;10.80;92.70
420;DHT22;42600;54.408;13.016;2024-03-22T13:14:54;10.80;92.70
420;DHT22;42600;54.408;13.016;2024-03-22T13:17:20;10.80;92.70
420;DHT22;42600;54.408;13.016;2024-03-22T13:19:46;10.80;92.70
420;DHT22;42600;54.408;13.016;2024-03-22T13:22:13;10.70;92.70
420;DHT22;42600;54.408;13.016;2024-03-22T13:24:41;10.70;92.70
420;DHT22;42600;54.408;13.016;2024-03-22T13:27:07;10.70;92.70
420;DHT22;42600;54.408;13.016;2024-03-22T13:29:33;10.70;92.70
420;DHT22;42600;54.408;13.016;2024-03-22T13:32:01;10.70;92.70
420;DHT22;42600;54.408;13.016;2024-03-22T13:34:27;10.70;92.70
420;DHT22;42600;54.408;13.016;2024-03-22T13:36:53;10.70;92.70
420;DHT22;42600;54.408;13.016;2024-03-22T13:39:19;10.60;92.70
420;DHT22;42600;54.408;13.016;2024-03-22T13:41:46;10.60;92.70
420;DHT22;42600;54.408;13.016;2024-03-22T13:44:12;10.60;92.70
420;DHT22;42600;54.408;13.016;2024-03-22T13:46:39;10.60;92.70
420;DHT22;42600;54.408;13.016;2024-03-22T13:49:14;10.50;92.70
420;DHT22;42600;54.408;13.016;2024-03-22T13:51:42;10.50;92.70
420;DHT22;42600;54.408;13.016;2024-03-22T13:54:08;10.50;92.70
420;DHT22;42600;54.408;13.016;2024-03-22T13:56:34;10.40;92.70
420;DHT22;42600;54.408;13.016;2024-03-22T13:59:00;10.40;92.70
420;DHT22;42600;54.408;13.016;2024-03-22T14:01:27;10.30;92.70
420;DHT22;42600;54.408;13.016;2024-03-22T14:03:53;10.30;92.70
420;DHT22;42600;54.408;13.016;2024-03-22T14:06:21;10.30;92.70
420;DHT22;42600;54.408;13.016;2024-03-22T14:08:47;10.30;92.70
420;DHT22;42600;54.408;13.016;2024-03-22T14:11:13;10.30;92.70
420;DHT22;42600;54.408;13.016;2024-03-22T14:13:39;10.30;92.70
420;DHT22;42600;54.408;13.016;2024-03-22T14:16:06;10.20;92.70
420;DHT22;42600;54.408;13.016;2024-03-22T14:18:32;10.20;92.70
420;DHT22;42600;54.408;13.016;2024-03-22T14:21:00;10.10;92.70
420;DHT22;42600;54.408;13.016;2024-03-22T14:23:27;10.10;92.70
420;DHT22;42600;54.408;13.016;2024-03-22T14:25:54;10.10;92.70
420;DHT22;42600;54.408;13.016;2024-03-22T14:28:20;10.10;92.70
420;DHT22;42600;54.408;13.016;2024-03-22T14:30:47;10.10;92.70
420;DHT22;42600;54.408;13.016;2024-03-22T14:33:12;10.10;92.70
420;DHT22;42600;54.408;13.016;2024-03-22T14:35:39;10.10;92.70
420;DHT22;42600;54.408;13.016;2024-03-22T14:38:04;10.10;92.70
420;DHT22;42600;54.408;13.016;2024-03-22T14:40:32;10.10;92.70
420;DHT22;42600;54.408;13.016;2024-03-22T14:43:02;10.00;92.70
420;DHT22;42600;54.408;13.016;2024-03-22T14:45:28;10.00;92.70
420;DHT22;42600;54.408;13.016;2024-03-22T14:47:54;10.00;92.70
420;DHT22;42600;54.408;13.016;2024-03-22T14:50:21;10.00;92.70
420;DHT22;42600;54.408;13.016;2024-03-22T14:52:49;9.90;92.70
420;DHT22;42600;54.408;13.016;2024-03-22T14:55:15;9.90;92.70
420;DHT22;42600;54.408;13.016;2024-03-22T14:57:42;9.90;92.70
420;DHT22;42600;54.408;13.016;2024-03-22T15:00:10;9.90;92.70
420;DHT22;42600;54.408;13.016;2024-03-22T15:02:38;9.90;92.70
420;DHT22;42600;54.408;13.016;2024-03-22T15:05:05;9.90;92.70
420;DHT22;42600;54.408;13.016;2024-03-22T15:07:30;9.90;92.70
420;DHT22;42600;54.408;13.016;2024-03-22T15:09:57;9.90;92.70
420;DHT22;42600;54.408;13.016;2024-03-22T15:12:23;9.90;92.70
420;DHT22;42600;54.408;13.016;2024-03-22T15:14:52;9.80;92.70
420;DHT22;42600;54.408;13.016;2024-03-22T15:17:18;9.80;92.70
420;DHT22;42600;54.408;13.016;2024-03-22T15:19:48;9.80;92.70
420;DHT22;42600;54.408;13.016;2024-03-22T15:22:14;9.80;92.70
420;DHT22;42600;54.408;13.016;2024-03-22T15:24:43;9.80;92.70
420;DHT22;42600;54.408;13.016;2024-03-22T15:27:09;9.80;92.70
420;DHT22;42600;54.408;13.016;2024-03-22T15:29:36;9.70;92.70
420;DHT22;42600;54.408;13.016;2024-03-22T15:32:04;9.70;92.70
420;DHT22;42600;54.408;13.016;2024-03-22T15:34:31;9.70;92.70
420;DHT22;42600;54.408;13.016;2024-03-22T15:36:56;9.70;92.70
420;DHT22;42600;54.408;13.016;2024-03-22T15:39:23;9.70;92.70
420;DHT22;42600;54.408;13.016;2024-03-22T15:41:51;9.70;92.70
420;DHT22;42600;54.408;13.016;2024-03-22T15:44:17;9.70;92.70
420;DHT22;42600;54.408;13.016;2024-03-22T15:46:43;9.70;92.70
420;DHT22;42600;54.408;13.016;2024-03-22T15:49:11;9.70;92.70
420;DHT22;42600;54.408;13.016;2024-03-22T15:51:38;9.70;92.70
420;DHT22;42600;54.408;13.016;2024-03-22T15:54:07;9.60;92.70